createdAt,value
2018-06-07T00:00:31.699Z,1004.74
2018-06-07T00:01:31.691Z,1004.74
2018-06-07T00:02:31.680Z,1004.76
2018-06-07T00:03:31.670Z,1004.75
2018-06-07T00:04:31.662Z,1004.74
2018-06-07T00:05:31.653Z,1004.72
2018-06-07T00:06:31.644Z,1004.73
2018-06-07T00:07:31.634Z,1004.7
2018-06-07T00:08:31.625Z,1004.67
2018-06-07T00:09:31.618Z,1004.69
2018-06-07T00:10:31.608Z,1004.66
2018-06-07T00:11:31.598Z,1004.65
2018-06-07T00:12:31.588Z,1004.64
2018-06-07T00:13:31.580Z,1004.62
2018-06-07T00:14:31.575Z,1004.63
2018-06-07T00:15:31.559Z,1004.63
2018-06-07T00:16:31.548Z,1004.63
2018-06-07T00:17:31.540Z,1004.67
2018-06-07T00:18:31.533Z,1004.64
2018-06-07T00:19:31.521Z,1004.64
2018-06-07T00:20:31.510Z,1004.63
2018-06-07T00:21:31.502Z,1004.68
2018-06-07T00:22:31.490Z,1004.66
2018-06-07T00:23:31.498Z,1004.72
2018-06-07T00:24:31.472Z,1004.66
2018-06-07T00:25:31.462Z,1004.75
2018-06-07T00:26:31.456Z,1004.74
2018-06-07T00:27:31.445Z,1004.74
2018-06-07T00:28:31.435Z,1004.75
2018-06-07T00:29:31.424Z,1004.71
2018-06-07T00:30:31.418Z,1004.75
2018-06-07T00:31:31.407Z,1004.73
2018-06-07T00:32:31.396Z,1004.75
2018-06-07T00:33:31.385Z,1004.73
2018-06-07T00:34:31.379Z,1004.73
2018-06-07T00:35:31.366Z,1004.74
2018-06-07T00:36:31.360Z,1004.75
2018-06-07T00:37:31.348Z,1004.76
2018-06-07T00:38:31.338Z,1004.75
2018-06-07T00:39:31.327Z,1004.74
2018-06-07T00:40:31.324Z,1004.79
2018-06-07T00:41:31.308Z,1004.8
2018-06-07T00:42:31.301Z,1004.74
2018-06-07T00:43:31.289Z,1004.77
2018-06-07T00:44:31.279Z,1004.77
2018-06-07T00:45:31.269Z,1004.76
2018-06-07T00:46:31.464Z,1004.8
2018-06-07T00:47:31.251Z,1004.78
2018-06-07T00:48:31.241Z,1004.77
2018-06-07T00:49:31.235Z,1004.74
2018-06-07T00:50:31.222Z,1004.8
2018-06-07T00:51:31.215Z,1004.78
2018-06-07T00:52:31.201Z,1004.82
2018-06-07T00:53:31.193Z,1004.8
2018-06-07T00:54:31.185Z,1004.84
2018-06-07T00:55:31.174Z,1004.86
2018-06-07T00:56:31.164Z,1004.84
2018-06-07T00:57:31.153Z,1004.82
2018-06-07T00:58:31.143Z,1004.84
2018-06-07T00:59:31.134Z,1004.85
2018-06-07T01:00:31.125Z,1004.82
2018-06-07T01:01:31.114Z,1004.84
2018-06-07T01:02:31.107Z,1004.83
2018-06-07T01:03:31.095Z,1004.79
2018-06-07T01:04:31.085Z,1004.78
2018-06-07T01:05:31.074Z,1004.81
2018-06-07T01:06:31.064Z,1004.79
2018-06-07T01:07:31.055Z,1004.83
2018-06-07T01:08:31.047Z,1004.81
2018-06-07T01:09:31.034Z,1004.8
2018-06-07T01:10:31.024Z,1004.8
2018-06-07T01:11:31.015Z,1004.82
2018-06-07T01:12:31.005Z,1004.85
2018-06-07T01:13:30.995Z,1004.85
2018-06-07T01:14:30.984Z,1004.83
2018-06-07T01:15:30.978Z,1004.86
2018-06-07T01:16:30.964Z,1004.88
2018-06-07T01:17:30.988Z,1004.86
2018-06-07T01:18:30.943Z,1004.86
2018-06-07T01:19:30.940Z,1004.81
2018-06-07T01:20:30.924Z,1004.84
2018-06-07T01:21:30.914Z,1004.79
2018-06-07T01:22:30.907Z,1004.83
2018-06-07T01:23:30.891Z,1004.79
2018-06-07T01:24:30.881Z,1004.81
2018-06-07T01:25:30.873Z,1004.78
2018-06-07T01:26:30.871Z,1004.84
2018-06-07T01:27:30.851Z,1004.79
2018-06-07T01:28:30.841Z,1004.82
2018-06-07T01:29:30.829Z,1004.81
2018-06-07T01:30:30.819Z,1004.82
2018-06-07T01:31:30.810Z,1004.84
2018-06-07T01:32:30.799Z,1004.87
2018-06-07T01:33:30.793Z,1004.87
2018-06-07T01:34:30.785Z,1004.91
2018-06-07T01:35:30.772Z,1004.93
2018-06-07T01:36:30.758Z,1004.93
2018-06-07T01:37:30.752Z,1004.94
2018-06-07T01:38:30.737Z,1004.93
2018-06-07T01:39:30.733Z,1004.93
2018-06-07T01:40:30.718Z,1004.95
2018-06-07T01:41:30.711Z,1004.92
2018-06-07T01:42:30.696Z,1004.91
2018-06-07T01:43:30.687Z,1004.92
2018-06-07T01:44:30.675Z,1004.95
2018-06-07T01:45:30.665Z,1004.96
2018-06-07T01:46:30.660Z,1004.93
2018-06-07T01:47:30.645Z,1004.93
2018-06-07T01:48:30.636Z,1004.93
2018-06-07T01:49:30.624Z,1004.95
2018-06-07T01:50:30.624Z,1004.91
2018-06-07T01:51:30.607Z,1004.93
2018-06-07T01:52:30.592Z,1004.93
2018-06-07T01:53:30.584Z,1004.91
2018-06-07T01:54:30.571Z,1004.95
2018-06-07T01:55:30.563Z,1004.98
2018-06-07T01:56:30.555Z,1004.95
2018-06-07T01:57:30.541Z,1004.98
2018-06-07T01:58:30.529Z,1004.99
2018-06-07T01:59:30.520Z,1004.97
2018-06-07T02:00:30.507Z,1004.97
2018-06-07T02:01:30.500Z,1004.96
2018-06-07T02:02:30.488Z,1004.97
2018-06-07T02:03:30.480Z,1004.99
2018-06-07T02:04:30.466Z,1004.98
2018-06-07T02:05:30.459Z,1004.95
2018-06-07T02:06:30.447Z,1004.96
2018-06-07T02:07:30.436Z,1004.98
2018-06-07T02:08:30.427Z,1004.96
2018-06-07T02:09:30.415Z,1004.99
2018-06-07T02:10:30.407Z,1004.97
2018-06-07T02:11:30.393Z,1004.98
2018-06-07T02:12:30.381Z,1004.96
2018-06-07T02:13:30.372Z,1004.96
2018-06-07T02:14:30.361Z,1004.95
2018-06-07T02:15:30.349Z,1004.92
2018-06-07T02:16:30.340Z,1004.89
2018-06-07T02:17:30.328Z,1004.87
2018-06-07T02:18:30.323Z,1004.88
2018-06-07T02:19:30.307Z,1004.9
2018-06-07T02:20:30.297Z,1004.81
2018-06-07T02:21:30.286Z,1004.85
2018-06-07T02:22:30.273Z,1004.84
2018-06-07T02:23:30.265Z,1004.82
2018-06-07T02:24:30.255Z,1004.8
2018-06-07T02:25:30.243Z,1004.83
2018-06-07T02:26:30.231Z,1004.85
2018-06-07T02:27:30.220Z,1004.87
2018-06-07T02:28:30.212Z,1004.84
2018-06-07T02:29:30.204Z,1004.84
2018-06-07T02:30:30.190Z,1004.87
2018-06-07T02:31:30.180Z,1004.82
2018-06-07T02:32:30.166Z,1004.85
2018-06-07T02:33:30.156Z,1004.82
2018-06-07T02:34:30.147Z,1004.83
2018-06-07T02:35:30.141Z,1004.85
2018-06-07T02:36:30.125Z,1004.89
2018-06-07T02:37:30.115Z,1004.9
2018-06-07T02:38:30.106Z,1004.89
2018-06-07T02:39:30.092Z,1004.89
2018-06-07T02:40:30.086Z,1004.93
2018-06-07T02:41:30.069Z,1004.92
2018-06-07T02:42:30.061Z,1004.92
2018-06-07T02:43:30.050Z,1004.94
2018-06-07T02:44:30.038Z,1004.93
2018-06-07T02:45:30.027Z,1005
2018-06-07T02:46:30.219Z,1004.98
2018-06-07T02:47:30.005Z,1005
2018-06-07T02:48:29.994Z,1005.03
2018-06-07T02:49:29.983Z,1005.02
2018-06-07T02:50:29.988Z,1005.03
2018-06-07T02:51:29.960Z,1005.03
2018-06-07T02:52:29.951Z,1005.07
2018-06-07T02:53:29.941Z,1005.07
2018-06-07T02:54:29.927Z,1005.08
2018-06-07T02:55:29.916Z,1005.08
2018-06-07T02:56:29.906Z,1005.1
2018-06-07T02:57:29.896Z,1005.12
2018-06-07T02:58:29.885Z,1005.14
2018-06-07T02:59:29.876Z,1005.18
2018-06-07T03:00:29.861Z,1005.15
2018-06-07T03:01:29.932Z,1005.16
2018-06-07T03:02:29.845Z,1005.19
2018-06-07T03:03:29.829Z,1005.16
2018-06-07T03:04:29.817Z,1005.17
2018-06-07T03:05:29.807Z,1005.13
2018-06-07T03:06:29.801Z,1005.16
2018-06-07T03:07:29.786Z,1005.2
2018-06-07T03:08:29.774Z,1005.14
2018-06-07T03:09:29.765Z,1005.14
2018-06-07T03:10:29.752Z,1005.13
2018-06-07T03:11:29.741Z,1005.1
2018-06-07T03:12:29.731Z,1005.12
2018-06-07T03:13:29.719Z,1005.12
2018-06-07T03:14:29.712Z,1005.11
2018-06-07T03:15:29.696Z,1005.09
2018-06-07T03:16:29.687Z,1005.09
2018-06-07T03:17:29.676Z,1005.05
2018-06-07T03:18:29.664Z,1005.08
2018-06-07T03:19:29.656Z,1005.07
2018-06-07T03:20:29.644Z,1005.03
2018-06-07T03:21:29.630Z,1005.09
2018-06-07T03:22:29.619Z,1005.1
2018-06-07T03:23:29.609Z,1005.06
2018-06-07T03:24:29.600Z,1005.07
2018-06-07T03:25:29.587Z,1005.07
2018-06-07T03:26:29.574Z,1005.06
2018-06-07T03:27:29.565Z,1005.08
2018-06-07T03:28:29.552Z,1005.06
2018-06-07T03:29:29.541Z,1005.07
2018-06-07T03:30:29.531Z,1005.1
2018-06-07T03:31:29.591Z,1005.12
2018-06-07T03:32:29.509Z,1005.12
2018-06-07T03:33:29.497Z,1005.19
2018-06-07T03:34:29.487Z,1005.16
2018-06-07T03:35:29.475Z,1005.17
2018-06-07T03:36:29.467Z,1005.15
2018-06-07T03:37:29.455Z,1005.18
2018-06-07T03:38:29.442Z,1005.16
2018-06-07T03:39:29.431Z,1005.15
2018-06-07T03:40:29.421Z,1005.14
2018-06-07T03:41:29.409Z,1005.13
2018-06-07T03:42:29.399Z,1005.16
2018-06-07T03:43:29.386Z,1005.12
2018-06-07T03:44:29.376Z,1005.15
2018-06-07T03:45:29.367Z,1005.1
2018-06-07T03:46:29.354Z,1005.11
2018-06-07T03:47:29.346Z,1005.11
2018-06-07T03:48:29.334Z,1005.13
2018-06-07T03:49:29.322Z,1005.13
2018-06-07T03:50:29.310Z,1005.14
2018-06-07T03:51:29.297Z,1005.16
2018-06-07T03:52:29.287Z,1005.2
2018-06-07T03:53:29.278Z,1005.17
2018-06-07T03:54:29.272Z,1005.2
2018-06-07T03:55:29.255Z,1005.21
2018-06-07T03:56:29.246Z,1005.2
2018-06-07T03:57:29.232Z,1005.22
2018-06-07T03:58:29.228Z,1005.21
2018-06-07T03:59:29.211Z,1005.21
2018-06-07T04:00:29.200Z,1005.24
2018-06-07T04:01:29.193Z,1005.25
2018-06-07T04:02:29.176Z,1005.26
2018-06-07T04:03:29.166Z,1005.24
2018-06-07T04:04:29.157Z,1005.24
2018-06-07T04:05:29.145Z,1005.25
2018-06-07T04:06:29.135Z,1005.27
2018-06-07T04:07:29.123Z,1005.31
2018-06-07T04:08:29.111Z,1005.3
2018-06-07T04:09:29.105Z,1005.27
2018-06-07T04:10:29.092Z,1005.32
2018-06-07T04:11:29.080Z,1005.3
2018-06-07T04:12:29.069Z,1005.25
2018-06-07T04:13:29.056Z,1005.3
2018-06-07T04:14:29.046Z,1005.29
2018-06-07T04:15:29.037Z,1005.34
2018-06-07T04:16:29.027Z,1005.37
2018-06-07T04:17:29.015Z,1005.4
2018-06-07T04:18:29.012Z,1005.41
2018-06-07T04:19:28.992Z,1005.44
2018-06-07T04:20:28.983Z,1005.43
2018-06-07T04:21:28.969Z,1005.43
2018-06-07T04:22:28.959Z,1005.45
2018-06-07T04:23:28.949Z,1005.45
2018-06-07T04:24:28.944Z,1005.44
2018-06-07T04:25:28.929Z,1005.43
2018-06-07T04:26:28.916Z,1005.43
2018-06-07T04:27:28.905Z,1005.44
2018-06-07T04:28:28.895Z,1005.48
2018-06-07T04:29:28.883Z,1005.55
2018-06-07T04:30:28.877Z,1005.54
2018-06-07T04:31:28.862Z,1005.57
2018-06-07T04:32:28.852Z,1005.61
2018-06-07T04:33:28.845Z,1005.65
2018-06-07T04:34:28.830Z,1005.65
2018-06-07T04:35:28.820Z,1005.7
2018-06-07T04:36:28.811Z,1005.77
2018-06-07T04:37:28.798Z,1005.78
2018-06-07T04:38:28.788Z,1005.83
2018-06-07T04:39:28.780Z,1005.81
2018-06-07T04:40:28.770Z,1005.79
2018-06-07T04:41:28.757Z,1005.76
2018-06-07T04:42:28.748Z,1005.68
2018-06-07T04:43:28.737Z,1005.64
2018-06-07T04:44:28.727Z,1005.63
2018-06-07T04:45:28.714Z,1005.64
2018-06-07T04:46:28.906Z,1005.64
2018-06-07T04:47:28.695Z,1005.64
2018-06-07T04:48:28.684Z,1005.67
2018-06-07T04:49:28.674Z,1005.69
2018-06-07T04:50:28.664Z,1005.78
2018-06-07T04:51:28.654Z,1005.8
2018-06-07T04:52:28.642Z,1005.84
2018-06-07T04:53:28.632Z,1005.85
2018-06-07T04:54:28.621Z,1005.88
2018-06-07T04:55:28.673Z,1005.86
2018-06-07T04:56:28.600Z,1005.88
2018-06-07T04:57:28.591Z,1005.92
2018-06-07T04:58:28.584Z,1005.87
2018-06-07T04:59:28.570Z,1005.87
2018-06-07T05:00:28.560Z,1005.83
2018-06-07T05:01:28.550Z,1005.9
2018-06-07T05:02:28.539Z,1005.92
2018-06-07T05:03:28.529Z,1005.95
2018-06-07T05:04:28.520Z,1006
2018-06-07T05:05:28.510Z,1005.95
2018-06-07T05:06:28.511Z,1005.87
2018-06-07T05:07:28.494Z,1005.89
2018-06-07T05:08:28.480Z,1005.92
2018-06-07T05:09:28.468Z,1005.96
2018-06-07T05:10:28.462Z,1005.99
2018-06-07T05:11:28.450Z,1005.94
2018-06-07T05:12:28.443Z,1005.93
2018-06-07T05:13:28.432Z,1005.92
2018-06-07T05:14:28.419Z,1005.93
2018-06-07T05:15:28.411Z,1005.89
2018-06-07T05:16:28.400Z,1005.93
2018-06-07T05:17:28.391Z,1005.88
2018-06-07T05:18:28.381Z,1005.93
2018-06-07T05:19:28.376Z,1005.97
2018-06-07T05:20:28.361Z,1005.96
2018-06-07T05:21:28.350Z,1005.95
2018-06-07T05:22:28.344Z,1005.93
2018-06-07T05:23:28.332Z,1005.88
2018-06-07T05:24:28.327Z,1005.9
2018-06-07T05:25:28.315Z,1005.92
2018-06-07T05:26:28.306Z,1005.95
2018-06-07T05:27:28.298Z,1006.01
2018-06-07T05:28:28.287Z,1005.98
2018-06-07T05:29:28.277Z,1006.02
2018-06-07T05:30:28.270Z,1006.05
2018-06-07T05:31:28.259Z,1006.04
2018-06-07T05:32:28.250Z,1006.04
2018-06-07T05:33:28.243Z,1006
2018-06-07T05:34:28.232Z,1005.99
2018-06-07T05:35:28.224Z,1006
2018-06-07T05:36:28.214Z,1006.03
2018-06-07T05:37:28.203Z,1006.07
2018-06-07T05:38:28.193Z,1006.06
2018-06-07T05:39:28.186Z,1006.11
2018-06-07T05:40:28.180Z,1006.09
2018-06-07T05:41:28.174Z,1006.06
2018-06-07T05:42:28.168Z,1006.02
2018-06-07T05:43:28.154Z,1005.97
2018-06-07T05:44:28.149Z,1005.92
2018-06-07T05:45:28.183Z,1005.97
2018-06-07T05:46:28.123Z,1006.04
2018-06-07T05:47:28.111Z,1006.14
2018-06-07T05:48:28.101Z,1006.15
2018-06-07T05:49:28.094Z,1006.17
2018-06-07T05:50:28.086Z,1006.14
2018-06-07T05:51:28.074Z,1006.16
2018-06-07T05:52:28.066Z,1006.12
2018-06-07T05:53:28.057Z,1006.11
2018-06-07T05:54:28.047Z,1006.03
2018-06-07T05:55:28.037Z,1006.03
2018-06-07T05:56:28.029Z,1006.06
2018-06-07T05:57:28.039Z,1006.06
2018-06-07T05:58:28.034Z,1006.13
2018-06-07T05:59:28.023Z,1006.13
2018-06-07T06:00:28.008Z,1006.06
2018-06-07T06:01:27.981Z,1006.07
2018-06-07T06:02:27.978Z,1006.08
2018-06-07T06:03:27.991Z,1006.02
2018-06-07T06:04:27.955Z,1006.03
2018-06-07T06:05:27.999Z,1006.04
2018-06-07T06:06:27.935Z,1006.01
2018-06-07T06:07:27.931Z,1006.04
2018-06-07T06:08:27.918Z,1006.02
2018-06-07T06:09:27.995Z,1006.03
2018-06-07T06:10:27.902Z,1005.99
2018-06-07T06:11:27.892Z,1006.01
2018-06-07T06:12:27.884Z,1005.98
2018-06-07T06:13:27.878Z,1005.99
2018-06-07T06:14:27.865Z,1005.99
2018-06-07T06:15:27.859Z,1006.02
2018-06-07T06:16:27.848Z,1006.04
2018-06-07T06:17:27.839Z,1006.06
2018-06-07T06:18:27.831Z,1006.1
2018-06-07T06:19:27.822Z,1006.13
2018-06-07T06:20:27.814Z,1006.13
2018-06-07T06:21:27.847Z,1006.09
2018-06-07T06:22:27.795Z,1006.04
2018-06-07T06:23:27.795Z,1006.07
2018-06-07T06:24:27.783Z,1006.1
2018-06-07T06:25:27.773Z,1006.11
2018-06-07T06:26:27.765Z,1006.08
2018-06-07T06:27:27.802Z,1006.12
2018-06-07T06:28:27.757Z,1006.09
2018-06-07T06:29:27.742Z,1006.13
2018-06-07T06:30:27.733Z,1006.13
2018-06-07T06:31:27.733Z,1006.15
2018-06-07T06:32:27.717Z,1006.16
2018-06-07T06:33:27.726Z,1006.18
2018-06-07T06:34:27.702Z,1006.16
2018-06-07T06:35:27.696Z,1006.19
2018-06-07T06:36:27.692Z,1006.17
2018-06-07T06:37:27.679Z,1006.18
2018-06-07T06:38:27.673Z,1006.21
2018-06-07T06:39:27.662Z,1006.21
2018-06-07T06:40:27.654Z,1006.25
2018-06-07T06:41:27.648Z,1006.23
2018-06-07T06:42:27.680Z,1006.25
2018-06-07T06:43:27.630Z,1006.29
2018-06-07T06:44:27.625Z,1006.34
2018-06-07T06:45:27.617Z,1006.4
2018-06-07T06:46:27.609Z,1006.37
2018-06-07T06:47:27.603Z,1006.36
2018-06-07T06:48:27.596Z,1006.42
2018-06-07T06:49:27.646Z,1006.45
2018-06-07T06:50:27.584Z,1006.4
2018-06-07T06:51:27.574Z,1006.3
2018-06-07T06:52:27.569Z,1006.28
2018-06-07T06:53:27.561Z,1006.3
2018-06-07T06:54:27.560Z,1006.25
2018-06-07T06:55:27.550Z,1006.23
2018-06-07T06:56:27.545Z,1006.26
2018-06-07T06:57:27.537Z,1006.25
2018-06-07T06:58:27.532Z,1006.28
2018-06-07T06:59:27.550Z,1006.27
2018-06-07T07:00:27.528Z,1006.27
2018-06-07T07:01:27.525Z,1006.28
2018-06-07T07:02:27.504Z,1006.26
2018-06-07T07:03:27.500Z,1006.24
2018-06-07T07:04:27.501Z,1006.24
2018-06-07T07:05:27.485Z,1006.28
2018-06-07T07:06:27.481Z,1006.3
2018-06-07T07:07:27.473Z,1006.36
2018-06-07T07:08:27.475Z,1006.41
2018-06-07T07:09:27.464Z,1006.4
2018-06-07T07:10:27.465Z,1006.49
2018-06-07T07:11:27.449Z,1006.49
2018-06-07T07:12:27.446Z,1006.47
2018-06-07T07:13:27.438Z,1006.49
2018-06-07T07:14:27.433Z,1006.5
2018-06-07T07:15:27.442Z,1006.51
2018-06-07T07:16:27.426Z,1006.57
2018-06-07T07:17:27.421Z,1006.49
2018-06-07T07:18:27.414Z,1006.47
2018-06-07T07:19:27.408Z,1006.43
2018-06-07T07:20:27.404Z,1006.39
2018-06-07T07:21:27.399Z,1006.34
2018-06-07T07:22:27.394Z,1006.32
2018-06-07T07:23:27.390Z,1006.31
2018-06-07T07:24:27.385Z,1006.37
2018-06-07T07:25:27.379Z,1006.39
2018-06-07T07:26:27.375Z,1006.4
2018-06-07T07:27:27.370Z,1006.39
2018-06-07T07:28:27.368Z,1006.43
2018-06-07T07:29:27.361Z,1006.44
2018-06-07T07:30:27.369Z,1006.46
2018-06-07T07:31:27.361Z,1006.47
2018-06-07T07:32:27.354Z,1006.52
2018-06-07T07:33:27.346Z,1006.58
2018-06-07T07:34:27.376Z,1006.51
2018-06-07T07:35:27.340Z,1006.41
2018-06-07T07:36:27.336Z,1006.51
2018-06-07T07:37:27.334Z,1006.5
2018-06-07T07:38:27.333Z,1006.46
2018-06-07T07:39:27.328Z,1006.48
2018-06-07T07:40:27.332Z,1006.49
2018-06-07T07:41:27.319Z,1006.49
2018-06-07T07:42:27.317Z,1006.49
2018-06-07T07:43:27.314Z,1006.5
2018-06-07T07:44:27.311Z,1006.48
2018-06-07T07:45:27.310Z,1006.51
2018-06-07T07:46:27.310Z,1006.5
2018-06-07T07:47:27.304Z,1006.5
2018-06-07T07:48:27.305Z,1006.49
2018-06-07T07:49:27.303Z,1006.49
2018-06-07T07:50:27.304Z,1006.52
2018-06-07T07:51:27.305Z,1006.53
2018-06-07T07:52:27.299Z,1006.56
2018-06-07T07:53:27.300Z,1006.62
2018-06-07T07:54:27.297Z,1006.51
2018-06-07T07:55:27.299Z,1006.55
2018-06-07T07:56:27.298Z,1006.61
2018-06-07T07:57:27.294Z,1006.62
2018-06-07T07:58:27.295Z,1006.58
2018-06-07T07:59:27.294Z,1006.65
2018-06-07T08:00:27.301Z,1006.59
2018-06-07T08:01:27.295Z,1006.59
2018-06-07T08:02:27.294Z,1006.56
2018-06-07T08:03:27.294Z,1006.56
2018-06-07T08:04:27.296Z,1006.53
2018-06-07T08:05:27.295Z,1006.55
2018-06-07T08:06:27.295Z,1006.56
2018-06-07T08:07:27.296Z,1006.5
2018-06-07T08:08:27.300Z,1006.52
2018-06-07T08:09:27.297Z,1006.55
2018-06-07T08:10:27.297Z,1006.55
2018-06-07T08:11:27.300Z,1006.53
2018-06-07T08:12:27.303Z,1006.57
2018-06-07T08:13:27.304Z,1006.58
2018-06-07T08:14:27.303Z,1006.57
2018-06-07T08:15:27.309Z,1006.61
2018-06-07T08:16:27.308Z,1006.61
2018-06-07T08:17:27.309Z,1006.61
2018-06-07T08:18:27.314Z,1006.64
2018-06-07T08:19:27.316Z,1006.62
2018-06-07T08:20:27.315Z,1006.61
2018-06-07T08:21:27.315Z,1006.7
2018-06-07T08:22:27.318Z,1006.7
2018-06-07T08:23:27.320Z,1006.67
2018-06-07T08:24:27.322Z,1006.68
2018-06-07T08:25:27.326Z,1006.69
2018-06-07T08:26:27.326Z,1006.68
2018-06-07T08:27:27.328Z,1006.72
2018-06-07T08:28:27.331Z,1006.62
2018-06-07T08:29:27.332Z,1006.6
2018-06-07T08:30:27.340Z,1006.45
2018-06-07T08:31:27.335Z,1006.48
2018-06-07T08:32:27.338Z,1006.47
2018-06-07T08:33:27.339Z,1006.45
2018-06-07T08:34:27.343Z,1006.48
2018-06-07T08:35:27.340Z,1006.45
2018-06-07T08:36:27.344Z,1006.45
2018-06-07T08:37:27.342Z,1006.5
2018-06-07T08:38:27.343Z,1006.47
2018-06-07T08:39:27.385Z,1006.48
2018-06-07T08:40:27.344Z,1006.4
2018-06-07T08:41:27.345Z,1006.46
2018-06-07T08:42:27.343Z,1006.42
2018-06-07T08:43:27.342Z,1006.36
2018-06-07T08:44:27.343Z,1006.36
2018-06-07T08:45:27.343Z,1006.46
2018-06-07T08:46:27.342Z,1006.44
2018-06-07T08:47:27.544Z,1006.47
2018-06-07T08:48:27.341Z,1006.56
2018-06-07T08:49:27.339Z,1006.51
2018-06-07T08:50:27.338Z,1006.42
2018-06-07T08:51:27.340Z,1006.44
2018-06-07T08:52:27.336Z,1006.45
2018-06-07T08:53:27.332Z,1006.4
2018-06-07T08:54:27.341Z,1006.43
2018-06-07T08:55:27.337Z,1006.44
2018-06-07T08:56:27.331Z,1006.49
2018-06-07T08:57:27.328Z,1006.48
2018-06-07T08:58:27.322Z,1006.49
2018-06-07T08:59:27.321Z,1006.56
2018-06-07T09:00:27.448Z,1006.77
2018-06-07T09:01:27.315Z,1006.86
2018-06-07T09:02:27.312Z,1006.98
2018-06-07T09:03:27.314Z,1007
2018-06-07T09:04:27.307Z,1007.06
2018-06-07T09:05:27.304Z,1007.09
2018-06-07T09:06:27.305Z,1007.1
2018-06-07T09:07:27.301Z,1007.1
2018-06-07T09:08:27.300Z,1007.14
2018-06-07T09:09:27.306Z,1007.09
2018-06-07T09:10:27.299Z,1007.13
2018-06-07T09:11:27.299Z,1007.12
2018-06-07T09:12:27.300Z,1007.14
2018-06-07T09:13:27.304Z,1007.12
2018-06-07T09:14:27.299Z,1007.04
2018-06-07T09:15:27.301Z,1006.89
2018-06-07T09:16:27.302Z,1006.9
2018-06-07T09:17:27.304Z,1006.94
2018-06-07T09:18:27.307Z,1006.9
2018-06-07T09:19:27.317Z,1006.85
2018-06-07T09:20:27.307Z,1006.85
2018-06-07T09:21:27.310Z,1006.76
2018-06-07T09:22:27.314Z,1006.7
2018-06-07T09:23:27.314Z,1006.72
2018-06-07T09:24:27.324Z,1006.66
2018-06-07T09:25:27.321Z,1006.58
2018-06-07T09:26:27.317Z,1006.55
2018-06-07T09:27:27.323Z,1006.64
2018-06-07T09:28:27.319Z,1006.66
2018-06-07T09:29:27.321Z,1006.64
2018-06-07T09:30:27.322Z,1006.66
2018-06-07T09:31:27.323Z,1006.62
2018-06-07T09:32:27.329Z,1006.76
2018-06-07T09:33:27.325Z,1006.8
2018-06-07T09:34:27.384Z,1006.84
2018-06-07T09:35:27.327Z,1006.85
2018-06-07T09:36:27.327Z,1006.81
2018-06-07T09:37:27.326Z,1006.65
2018-06-07T09:38:27.328Z,1006.52
2018-06-07T09:39:27.532Z,1006.58
2018-06-07T09:40:27.326Z,1006.53
2018-06-07T09:41:27.363Z,1006.57
2018-06-07T09:42:27.331Z,1006.55
2018-06-07T09:43:27.329Z,1006.53
2018-06-07T09:44:27.328Z,1006.54
2018-06-07T09:45:27.329Z,1006.54
2018-06-07T09:46:27.335Z,1006.59
2018-06-07T09:47:27.328Z,1006.57
2018-06-07T09:48:27.329Z,1006.55
2018-06-07T09:49:27.326Z,1006.56
2018-06-07T09:50:27.326Z,1006.57
2018-06-07T09:51:27.330Z,1006.59
2018-06-07T09:52:27.327Z,1006.53
2018-06-07T09:53:27.326Z,1006.59
2018-06-07T09:54:27.326Z,1006.59
2018-06-07T09:55:27.323Z,1006.59
2018-06-07T09:56:27.367Z,1006.59
2018-06-07T09:57:27.321Z,1006.6
2018-06-07T09:58:27.416Z,1006.59
2018-06-07T09:59:27.316Z,1006.6
2018-06-07T10:00:27.321Z,1006.61
2018-06-07T10:01:27.325Z,1006.59
2018-06-07T10:02:27.315Z,1006.59
2018-06-07T10:03:27.310Z,1006.63
2018-06-07T10:04:27.313Z,1006.59
2018-06-07T10:05:27.307Z,1006.55
2018-06-07T10:06:27.317Z,1006.5
2018-06-07T10:07:27.305Z,1006.55
2018-06-07T10:08:27.300Z,1006.57
2018-06-07T10:09:27.299Z,1006.58
2018-06-07T10:10:27.300Z,1006.6
2018-06-07T10:11:27.294Z,1006.56
2018-06-07T10:12:27.301Z,1006.64
2018-06-07T10:13:27.290Z,1006.75
2018-06-07T10:14:27.287Z,1006.83
2018-06-07T10:15:27.285Z,1006.85
2018-06-07T10:16:27.284Z,1006.95
2018-06-07T10:17:27.281Z,1007.05
2018-06-07T10:18:27.280Z,1007
2018-06-07T10:19:27.282Z,1007
2018-06-07T10:20:27.280Z,1006.99
2018-06-07T10:21:27.280Z,1007.01
2018-06-07T10:22:27.341Z,1007.01
2018-06-07T10:23:27.280Z,1006.95
2018-06-07T10:24:27.280Z,1007
2018-06-07T10:25:27.284Z,1006.98
2018-06-07T10:26:27.283Z,1006.98
2018-06-07T10:27:27.286Z,1007
2018-06-07T10:28:27.287Z,1006.97
2018-06-07T10:29:27.288Z,1006.96
2018-06-07T10:30:27.299Z,1006.96
2018-06-07T10:31:27.296Z,1006.97
2018-06-07T10:32:27.298Z,1006.99
2018-06-07T10:33:27.301Z,1007
2018-06-07T10:34:27.307Z,1007.02
2018-06-07T10:35:27.308Z,1006.98
2018-06-07T10:36:27.313Z,1006.97
2018-06-07T10:37:27.316Z,1006.96
2018-06-07T10:38:27.324Z,1006.94
2018-06-07T10:39:27.329Z,1006.86
2018-06-07T10:40:27.332Z,1006.88
2018-06-07T10:41:27.337Z,1006.82
2018-06-07T10:42:27.343Z,1006.76
2018-06-07T10:43:27.349Z,1006.7
2018-06-07T10:44:27.355Z,1006.63
2018-06-07T10:45:27.359Z,1006.56
2018-06-07T10:46:27.366Z,1006.54
2018-06-07T10:47:27.581Z,1006.52
2018-06-07T10:48:27.377Z,1006.57
2018-06-07T10:49:27.387Z,1006.52
2018-06-07T10:50:27.391Z,1006.53
2018-06-07T10:51:27.395Z,1006.56
2018-06-07T10:52:27.401Z,1006.57
2018-06-07T10:53:27.409Z,1006.59
2018-06-07T10:54:27.414Z,1006.58
2018-06-07T10:55:27.422Z,1006.55
2018-06-07T10:56:27.427Z,1006.59
2018-06-07T10:57:27.434Z,1006.58
2018-06-07T10:58:27.439Z,1006.6
2018-06-07T10:59:27.448Z,1006.59
2018-06-07T11:00:27.456Z,1006.6
2018-06-07T11:01:27.457Z,1006.6
2018-06-07T11:02:27.469Z,1006.59
2018-06-07T11:03:27.472Z,1006.6
2018-06-07T11:04:27.491Z,1006.58
2018-06-07T11:05:27.494Z,1006.58
2018-06-07T11:06:27.495Z,1006.57
2018-06-07T11:07:27.496Z,1006.58
2018-06-07T11:08:27.505Z,1006.58
2018-06-07T11:09:27.520Z,1006.6
2018-06-07T11:10:27.521Z,1006.58
2018-06-07T11:11:27.526Z,1006.63
2018-06-07T11:12:27.536Z,1006.65
2018-06-07T11:13:27.539Z,1006.6
2018-06-07T11:14:27.544Z,1006.54
2018-06-07T11:15:27.550Z,1006.56
2018-06-07T11:16:27.560Z,1006.55
2018-06-07T11:17:27.564Z,1006.54
2018-06-07T11:18:27.573Z,1006.53
2018-06-07T11:19:27.577Z,1006.48
2018-06-07T11:20:27.592Z,1006.53
2018-06-07T11:21:27.593Z,1006.56
2018-06-07T11:22:27.601Z,1006.52
2018-06-07T11:23:27.605Z,1006.51
2018-06-07T11:24:27.617Z,1006.5
2018-06-07T11:25:27.621Z,1006.53
2018-06-07T11:26:27.630Z,1006.48
2018-06-07T11:27:27.632Z,1006.48
2018-06-07T11:28:27.642Z,1006.46
2018-06-07T11:29:27.647Z,1006.47
2018-06-07T11:30:27.656Z,1006.45
2018-06-07T11:31:27.719Z,1006.4
2018-06-07T11:32:27.671Z,1006.44
2018-06-07T11:33:27.679Z,1006.41
2018-06-07T11:34:27.686Z,1006.39
2018-06-07T11:35:27.692Z,1006.42
2018-06-07T11:36:27.700Z,1006.42
2018-06-07T11:37:27.710Z,1006.42
2018-06-07T11:38:27.717Z,1006.39
2018-06-07T11:39:27.724Z,1006.35
2018-06-07T11:40:27.734Z,1006.36
2018-06-07T11:41:27.744Z,1006.34
2018-06-07T11:42:27.748Z,1006.32
2018-06-07T11:43:27.756Z,1006.34
2018-06-07T11:44:27.765Z,1006.31
2018-06-07T11:45:27.772Z,1006.32
2018-06-07T11:46:27.783Z,1006.25
2018-06-07T11:47:27.790Z,1006.27
2018-06-07T11:48:27.799Z,1006.29
2018-06-07T11:49:27.804Z,1006.29
2018-06-07T11:50:27.814Z,1006.35
2018-06-07T11:51:27.820Z,1006.22
2018-06-07T11:52:27.834Z,1006.26
2018-06-07T11:53:27.838Z,1006.29
2018-06-07T11:54:27.848Z,1006.29
2018-06-07T11:55:27.855Z,1006.28
2018-06-07T11:56:27.871Z,1006.22
2018-06-07T11:57:27.870Z,1006.3
2018-06-07T11:58:27.878Z,1006.22
2018-06-07T11:59:27.887Z,1006.22
2018-06-07T12:00:27.894Z,1006.21
2018-06-07T12:01:27.903Z,1006.22
2018-06-07T12:02:27.924Z,1006.18
2018-06-07T12:03:27.921Z,1006.19
2018-06-07T12:04:27.927Z,1006.19
2018-06-07T12:05:27.938Z,1006.13
2018-06-07T12:06:27.943Z,1006.17
2018-06-07T12:07:27.992Z,1006.14
2018-06-07T12:08:27.959Z,1006.11